createdAt,value
2022-08-09T00:00:21.089Z,178.05
2022-08-09T00:02:49.422Z,201.50
2022-08-09T00:06:18.224Z,174.43
2022-08-09T00:08:09.656Z,186.07
2022-08-09T00:10:38.318Z,172.02
2022-08-09T00:13:17.503Z,202.45
2022-08-09T00:16:00.167Z,196.20
2022-08-09T00:18:35.846Z,183.75
2022-08-09T00:21:08.735Z,177.15
2022-08-09T00:23:55.578Z,185.10
2022-08-09T00:26:32.412Z,174.15
2022-08-09T00:29:12.536Z,183.52
2022-08-09T00:31:59.470Z,178.35
2022-08-09T00:34:28.093Z,186.07
2022-08-09T00:37:00.540Z,191.18
2022-08-09T00:40:13.802Z,210.60
2022-08-09T00:44:16.718Z,166.75
2022-08-09T00:45:16.015Z,182.30
2022-08-09T00:50:14.442Z,172.05
2022-08-09T00:52:42.155Z,153.60
2022-08-09T00:55:10.260Z,172.38
2022-08-09T00:57:43.943Z,184.30
2022-08-09T01:00:21.803Z,172.65
2022-08-09T01:02:57.996Z,175.60
2022-08-09T01:05:53.592Z,185.75
2022-08-09T01:08:58.477Z,212.15
2022-08-09T01:11:56.172Z,196.15
2022-08-09T01:14:55.630Z,165.30
2022-08-09T01:20:03.385Z,140.02
2022-08-09T01:24:01.012Z,146.25
2022-08-09T01:26:11.853Z,144.77
2022-08-09T01:28:47.703Z,166.57
2022-08-09T01:32:28.103Z,147.05
2022-08-09T01:34:10.242Z,151.82
2022-08-09T01:36:40.959Z,148.07
2022-08-09T01:39:08.747Z,151.27
2022-08-09T01:41:53.375Z,152.88
2022-08-09T01:44:23.809Z,150.45
2022-08-09T01:46:53.024Z,157.15
2022-08-09T01:49:24.095Z,155.63
2022-08-09T01:51:58.918Z,147.80
2022-08-09T01:54:44.427Z,159.35
2022-08-09T01:57:31.770Z,156.43
2022-08-09T02:00:34.974Z,164.75
2022-08-09T02:02:59.319Z,150.98
2022-08-09T02:05:38.081Z,151.50
2022-08-09T02:08:39.147Z,141.50
2022-08-09T02:11:17.000Z,152.45
2022-08-09T02:13:55.306Z,155.50
2022-08-09T02:16:59.873Z,141.68
2022-08-09T02:19:38.786Z,136.70
2022-08-09T02:22:35.067Z,150.48
2022-08-09T02:25:10.125Z,153.98
2022-08-09T02:28:00.050Z,137.45
2022-08-09T02:30:37.364Z,148.63
2022-08-09T02:33:08.046Z,151.68
2022-08-09T02:36:01.305Z,159.85
2022-08-09T02:38:36.362Z,141.98
2022-08-09T02:41:17.290Z,149.90
2022-08-09T02:43:54.889Z,154.63
2022-08-09T02:46:29.214Z,152.57
2022-08-09T02:49:00.435Z,148.43
2022-08-09T02:51:37.119Z,177.52
2022-08-09T02:54:13.735Z,142.85
2022-08-09T02:56:51.008Z,139.82
2022-08-09T02:59:26.195Z,141.18
2022-08-09T03:02:09.727Z,134.23
2022-08-09T03:04:45.113Z,142.73
2022-08-09T03:07:14.658Z,152.20
2022-08-09T03:09:56.347Z,132.30
2022-08-09T03:12:27.523Z,152.43
2022-08-09T03:14:57.347Z,146.00
2022-08-09T03:17:26.586Z,141.30
2022-08-09T03:20:00.358Z,147.98
2022-08-09T03:22:33.616Z,160.30
2022-08-09T03:25:26.000Z,147.77
2022-08-09T03:27:59.296Z,144.35
2022-08-09T03:33:12.894Z,115.15
2022-08-09T03:36:13.757Z,146.10
2022-08-09T03:38:32.387Z,130.35
2022-08-09T03:40:59.514Z,141.75
2022-08-09T03:43:32.147Z,146.93
2022-08-09T03:46:05.159Z,142.32
2022-08-09T03:48:52.954Z,138.60
2022-08-09T03:51:56.250Z,144.68
2022-08-09T03:54:14.370Z,132.88
2022-08-09T03:56:42.299Z,149.13
2022-08-09T03:59:17.280Z,145.25
2022-08-09T04:01:56.754Z,135.93
2022-08-09T04:04:36.274Z,129.73
2022-08-09T04:07:06.268Z,134.07
2022-08-09T04:09:41.742Z,131.60
2022-08-09T04:12:30.822Z,129.77
2022-08-09T04:15:11.492Z,127.47
2022-08-09T04:17:47.452Z,126.38
2022-08-09T04:20:16.211Z,123.65
2022-08-09T04:22:44.552Z,127.00
2022-08-09T04:25:12.873Z,126.60
2022-08-09T04:27:49.213Z,123.93
2022-08-09T04:30:20.975Z,129.93
2022-08-09T04:32:51.669Z,124.30
2022-08-09T04:35:21.588Z,128.73
2022-08-09T04:37:49.776Z,127.45
2022-08-09T04:40:19.228Z,130.70
2022-08-09T04:42:56.727Z,123.97
2022-08-09T04:45:24.182Z,134.63
2022-08-09T04:48:00.994Z,139.43
2022-08-09T04:50:31.960Z,129.85
2022-08-09T04:53:02.609Z,145.13
2022-08-09T04:55:38.197Z,132.73
2022-08-09T04:58:09.335Z,124.05
2022-08-09T05:00:37.397Z,133.63
2022-08-09T05:03:30.308Z,126.80
2022-08-09T05:06:06.508Z,134.73
2022-08-09T05:08:35.669Z,137.25
2022-08-09T05:11:03.723Z,146.82
2022-08-09T05:13:34.226Z,143.02
2022-08-09T05:16:10.111Z,132.80
2022-08-09T05:18:58.493Z,154.75
2022-08-09T05:21:29.949Z,127.53
2022-08-09T05:24:03.667Z,128.15
2022-08-09T05:26:36.676Z,126.85
2022-08-09T05:29:21.760Z,129.45
2022-08-09T05:31:56.961Z,137.02
2022-08-09T05:34:32.728Z,139.52
2022-08-09T05:37:06.410Z,134.98
2022-08-09T05:39:43.602Z,129.65
2022-08-09T05:42:17.887Z,137.23
2022-08-09T05:44:53.028Z,142.60
2022-08-09T05:47:25.297Z,141.43
2022-08-09T05:50:34.913Z,140.32
2022-08-09T05:52:44.299Z,133.15
2022-08-09T05:55:18.165Z,141.32
2022-08-09T05:57:55.572Z,145.38
2022-08-09T06:00:26.715Z,156.02
2022-08-09T06:02:57.851Z,146.23
2022-08-09T06:05:31.137Z,153.93
2022-08-09T06:08:13.818Z,146.68
2022-08-09T06:10:47.124Z,139.05
2022-08-09T06:13:20.351Z,137.63
2022-08-09T06:15:51.374Z,163.43
2022-08-09T06:18:25.326Z,146.65
2022-08-09T06:20:57.635Z,152.45
2022-08-09T06:23:57.810Z,153.20
2022-08-09T06:26:21.233Z,150.43
2022-08-09T06:29:00.215Z,163.15
2022-08-09T06:31:30.626Z,151.35
2022-08-09T06:33:58.696Z,146.57
2022-08-09T06:36:27.324Z,153.57
2022-08-09T06:38:57.663Z,150.30
2022-08-09T06:41:40.572Z,159.95
2022-08-09T06:44:14.419Z,168.95
2022-08-09T06:46:48.266Z,182.70
2022-08-09T06:49:29.160Z,146.13
2022-08-09T06:52:05.468Z,156.85
2022-08-09T06:57:01.987Z,143.38
2022-08-09T07:00:52.508Z,124.15
2022-08-09T07:02:16.726Z,107.65
2022-08-09T07:04:43.909Z,143.65
2022-08-09T07:07:12.222Z,127.95
2022-08-09T07:10:10.499Z,110.05
2022-08-09T07:12:46.432Z,110.10
2022-08-09T07:16:35.028Z,112.43
2022-08-09T07:18:14.181Z,101.95
2022-08-09T07:20:43.711Z,122.13
2022-08-09T07:23:18.712Z,114.32
2022-08-09T07:25:52.537Z,116.47
2022-08-09T07:28:31.308Z,125.95
2022-08-09T07:31:04.805Z,101.65
2022-08-09T07:33:52.127Z,100.03
2022-08-09T07:36:20.167Z,109.72
2022-08-09T07:39:00.372Z,102.97
2022-08-09T07:41:32.855Z,104.80
2022-08-09T07:44:05.745Z,110.45
2022-08-09T07:46:33.977Z,108.78
2022-08-09T07:49:04.158Z,93.07
2022-08-09T07:52:05.684Z,128.43
2022-08-09T07:54:28.015Z,105.65
2022-08-09T07:56:58.523Z,104.53
2022-08-09T07:59:45.947Z,118.25
2022-08-09T08:02:19.536Z,126.10
2022-08-09T08:04:49.016Z,123.75
2022-08-09T08:08:44.351Z,90.28
2022-08-09T08:10:10.994Z,97.70
2022-08-09T08:12:43.587Z,115.97
2022-08-09T08:15:16.626Z,123.13
2022-08-09T08:17:54.673Z,127.80
2022-08-09T08:20:30.447Z,130.20
2022-08-09T08:23:06.323Z,127.03
2022-08-09T08:25:44.602Z,111.65
2022-08-09T08:28:15.530Z,123.67
2022-08-09T08:30:45.691Z,123.28
2022-08-09T08:33:23.046Z,104.63
2022-08-09T08:35:59.327Z,119.25
2022-08-09T08:38:29.671Z,147.95
2022-08-09T08:40:58.362Z,141.50
2022-08-09T08:43:26.589Z,148.77
2022-08-09T08:46:03.913Z,151.95
2022-08-09T08:48:52.018Z,140.50
2022-08-09T08:51:23.188Z,142.10
2022-08-09T08:54:04.438Z,152.98
2022-08-09T08:56:41.618Z,149.57
2022-08-09T08:59:19.939Z,134.52
2022-08-09T09:01:53.306Z,134.43
2022-08-09T09:04:29.824Z,113.72
2022-08-09T09:07:07.935Z,140.25
2022-08-09T09:09:58.704Z,121.43
2022-08-09T09:12:29.147Z,198.57
2022-08-09T09:14:59.008Z,151.50
2022-08-09T09:17:46.410Z,152.18
2022-08-09T09:20:15.740Z,132.93
2022-08-09T09:23:01.874Z,173.87
2022-08-09T09:26:01.189Z,175.65
2022-08-09T09:29:02.859Z,122.13
2022-08-09T09:32:06.062Z,195.52
2022-08-09T09:34:14.626Z,168.23
2022-08-09T09:39:42.744Z,95.53
2022-08-09T09:42:25.884Z,162.60
2022-08-09T09:45:03.244Z,165.13
2022-08-09T09:47:32.947Z,148.23
2022-08-09T09:50:15.928Z,107.88
2022-08-09T09:52:54.465Z,130.35
2022-08-09T09:55:31.904Z,125.78
2022-08-09T09:58:16.385Z,65.00
2022-08-09T10:00:54.147Z,25.98
2022-08-09T10:03:57.314Z,94.57
2022-08-09T10:06:38.711Z,102.35
2022-08-09T10:09:22.682Z,34.63
2022-08-09T10:12:14.423Z,76.65
2022-08-09T10:14:49.168Z,68.15
2022-08-09T10:17:50.735Z,89.65
2022-08-09T10:20:27.805Z,39.17
2022-08-09T10:23:20.400Z,47.33
2022-08-09T10:26:07.029Z,55.10
2022-08-09T10:28:43.315Z,94.57
2022-08-09T10:34:08.870Z,52.17
2022-08-09T10:36:39.875Z,55.55
2022-08-09T10:39:15.905Z,41.88
2022-08-09T10:41:47.726Z,46.73
2022-08-09T10:44:22.230Z,44.88
2022-08-09T10:48:12.013Z,79.78
2022-08-09T10:50:06.394Z,64.38
2022-08-09T10:52:43.021Z,55.35
2022-08-09T10:55:35.776Z,41.15
2022-08-09T10:58:33.802Z,51.10
2022-08-09T11:03:02.530Z,46.28
2022-08-09T11:04:19.373Z,49.60
2022-08-09T11:07:01.599Z,39.00
2022-08-09T11:09:47.431Z,28.70
2022-08-09T11:12:29.408Z,29.08
2022-08-09T11:15:23.906Z,35.33
2022-08-09T11:18:03.114Z,35.03
2022-08-09T11:20:49.675Z,11.30
2022-08-09T11:23:23.996Z,23.67
2022-08-09T11:25:54.684Z,27.30
2022-08-09T11:28:33.759Z,29.65
2022-08-09T11:31:50.258Z,23.73
2022-08-09T11:34:29.682Z,29.63
2022-08-09T11:37:00.272Z,14.27
2022-08-09T11:39:38.067Z,25.25
2022-08-09T11:42:14.868Z,35.33
2022-08-09T11:44:46.546Z,28.45
2022-08-09T11:47:15.443Z,27.77
2022-08-09T11:50:56.228Z,32.40
2022-08-09T11:53:20.713Z,29.70
2022-08-09T11:55:53.505Z,35.35
2022-08-09T11:58:32.914Z,40.13
2022-08-09T12:01:37.554Z,82.43
2022-08-09T12:04:04.820Z,144.80
2022-08-09T12:06:35.261Z,114.70
2022-08-09T12:09:19.164Z,173.50
2022-08-09T12:12:05.275Z,326.95
2022-08-09T12:14:41.099Z,304.42
2022-08-09T12:17:27.584Z,306.30
2022-08-09T12:19:59.602Z,228.23
2022-08-09T12:22:29.183Z,359.98
2022-08-09T12:25:16.198Z,173.53
2022-08-09T12:29:11.257Z,218.88
2022-08-09T12:30:36.947Z,292.20
2022-08-09T12:33:07.375Z,281.88
2022-08-09T12:35:40.685Z,354.23
2022-08-09T12:38:29.794Z,446.02
2022-08-09T12:41:04.698Z,594.70
2022-08-09T12:44:05.879Z,583.55
2022-08-09T12:46:23.708Z,596.78
2022-08-09T12:48:55.797Z,676.92
2022-08-09T12:51:52.749Z,604.55
2022-08-09T12:54:11.076Z,747.63
2022-08-09T12:56:51.329Z,741.10
2022-08-09T12:59:23.734Z,730.97
2022-08-09T13:01:59.784Z,832.13
2022-08-09T13:04:35.789Z,894.05
2022-08-09T13:07:16.522Z,915.03
2022-08-09T13:10:00.977Z,934.80
2022-08-09T13:13:10.023Z,956.60
2022-08-09T13:16:03.870Z,946.35
2022-08-09T13:18:47.030Z,928.88
2022-08-09T13:23:00.687Z,976.50
2022-08-09T13:24:44.440Z,900.10
2022-08-09T13:27:04.712Z,847.50
2022-08-09T13:30:03.247Z,864.08
2022-08-09T13:32:27.503Z,840.30
2022-08-09T13:35:05.765Z,861.40
2022-08-09T13:37:52.269Z,857.88
2022-08-09T13:41:54.257Z,860.08
2022-08-09T13:43:09.836Z,868.40
2022-08-09T13:46:44.753Z,829.72
2022-08-09T13:48:24.668Z,862.90
2022-08-09T13:50:51.929Z,902.13
2022-08-09T13:53:19.174Z,907.13
2022-08-09T13:55:47.886Z,919.65
2022-08-09T13:58:15.101Z,904.80
2022-08-09T14:00:48.190Z,906.25
2022-08-09T14:04:03.250Z,940.72
2022-08-09T14:06:19.291Z,918.47
2022-08-09T14:08:52.999Z,971.63
2022-08-09T14:11:20.423Z,931.78
2022-08-09T14:14:22.923Z,972.00
2022-08-09T14:16:34.727Z,984.22
2022-08-09T14:19:01.849Z,971.33
2022-08-09T14:21:29.304Z,964.72
2022-08-09T14:24:00.973Z,1000.38
2022-08-09T14:26:32.571Z,971.33
2022-08-09T14:29:08.211Z,972.50
2022-08-09T14:31:53.386Z,910.47
2022-08-09T14:34:27.539Z,917.45
2022-08-09T14:37:06.842Z,865.75
2022-08-09T14:39:46.212Z,843.40
2022-08-09T14:42:30.185Z,751.67
2022-08-09T14:46:40.044Z,702.83
2022-08-09T14:47:58.070Z,626.60
2022-08-09T14:50:27.757Z,643.47
2022-08-09T14:52:55.104Z,542.67
2022-08-09T14:55:22.167Z,412.73
2022-08-09T14:57:49.709Z,520.17
2022-08-09T15:00:20.986Z,384.10
2022-08-09T15:02:51.857Z,457.40
2022-08-09T15:05:20.018Z,535.22
2022-08-09T15:07:56.687Z,416.38
2022-08-09T15:10:26.339Z,299.50
2022-08-09T15:12:54.735Z,332.63
2022-08-09T15:15:22.166Z,310.48
2022-08-09T15:17:52.331Z,288.42
2022-08-09T15:21:58.346Z,349.38
2022-08-09T15:24:00.955Z,309.03
2022-08-09T15:25:58.559Z,294.85
2022-08-09T15:28:27.701Z,299.67
2022-08-09T15:31:14.570Z,290.05
2022-08-09T15:34:15.534Z,300.23
2022-08-09T15:36:31.209Z,248.68
2022-08-09T15:39:00.147Z,243.68
2022-08-09T15:41:31.720Z,239.97
2022-08-09T15:44:01.727Z,225.93
2022-08-09T15:46:33.028Z,173.73
2022-08-09T15:49:21.832Z,208.38
2022-08-09T15:52:04.905Z,178.27
2022-08-09T15:54:44.800Z,200.23
2022-08-09T15:57:34.112Z,161.75
2022-08-09T16:00:13.868Z,129.00
2022-08-09T16:02:48.230Z,220.00
2022-08-09T16:05:23.509Z,183.40
2022-08-09T16:07:51.280Z,165.68
2022-08-09T16:10:55.158Z,184.45
2022-08-09T16:13:20.865Z,143.77
2022-08-09T16:16:10.399Z,141.18
2022-08-09T16:18:45.181Z,101.88
2022-08-09T16:21:17.708Z,126.88
2022-08-09T16:24:01.633Z,146.05
2022-08-09T16:26:34.484Z,152.60
2022-08-09T16:29:11.713Z,160.05
2022-08-09T16:32:17.965Z,139.57
2022-08-09T16:34:29.140Z,117.27
2022-08-09T16:36:56.787Z,116.20
2022-08-09T16:39:25.689Z,106.65
2022-08-09T16:42:03.685Z,124.20
2022-08-09T16:44:32.662Z,101.72
2022-08-09T16:47:03.940Z,96.68
2022-08-09T16:50:31.352Z,80.40
2022-08-09T16:52:19.150Z,66.25
2022-08-09T16:54:46.287Z,79.88
2022-08-09T16:59:44.099Z,115.22
2022-08-09T17:02:17.977Z,85.82
2022-08-09T17:04:50.656Z,85.07
2022-08-09T17:08:46.847Z,78.80
2022-08-09T17:10:09.434Z,86.18
2022-08-09T17:12:38.300Z,137.13
2022-08-09T17:15:30.769Z,52.95
2022-08-09T17:18:00.741Z,69.60
2022-08-09T17:20:35.749Z,83.05
2022-08-09T17:23:06.224Z,72.30
2022-08-09T17:25:37.620Z,80.40
2022-08-09T17:28:07.122Z,53.10
2022-08-09T17:30:34.970Z,61.17
2022-08-09T17:33:05.738Z,78.63
2022-08-09T17:35:50.242Z,69.68
2022-08-09T17:38:32.315Z,54.72
2022-08-09T17:41:04.418Z,65.15
2022-08-09T17:43:35.467Z,59.90
2022-08-09T17:46:08.722Z,55.70
2022-08-09T17:48:40.255Z,59.40
2022-08-09T17:51:18.821Z,41.55
2022-08-09T17:53:53.601Z,47.40
2022-08-09T17:56:28.840Z,41.17
2022-08-09T17:58:58.734Z,39.83
2022-08-09T18:04:13.877Z,32.70
2022-08-09T18:06:43.090Z,34.97
2022-08-09T18:09:21.280Z,41.58
2022-08-09T18:12:14.625Z,63.63
2022-08-09T18:14:37.658Z,39.10
2022-08-09T18:17:18.830Z,48.33
2022-08-09T18:20:54.198Z,34.60
2022-08-09T18:22:54.110Z,36.25
2022-08-09T18:25:21.358Z,63.25
2022-08-09T18:28:21.568Z,45.53
2022-08-09T18:30:56.313Z,40.72
2022-08-09T18:33:23.941Z,47.50
2022-08-09T18:36:00.198Z,35.65
2022-08-09T18:38:28.368Z,34.38
2022-08-09T18:40:56.225Z,47.33
2022-08-09T18:43:25.021Z,49.05
2022-08-09T18:46:47.501Z,38.42
2022-08-09T18:48:42.200Z,40.90
2022-08-09T18:51:10.003Z,47.50
2022-08-09T18:53:56.941Z,33.72
2022-08-09T18:56:28.055Z,30.48
2022-08-09T18:59:01.203Z,32.38
2022-08-09T19:01:28.773Z,46.70
2022-08-09T19:04:10.947Z,30.95
2022-08-09T19:06:39.034Z,33.70
2022-08-09T19:09:33.995Z,40.58
2022-08-09T19:12:07.603Z,35.60
2022-08-09T19:17:03.605Z,32.03
2022-08-09T19:19:41.336Z,42.45
2022-08-09T19:22:09.043Z,35.35
2022-08-09T19:25:07.429Z,33.72
2022-08-09T19:27:25.892Z,34.80
2022-08-09T19:30:22.962Z,38.67
2022-08-09T19:32:44.273Z,40.30
2022-08-09T19:35:11.415Z,40.85
2022-08-09T19:37:52.790Z,42.22
2022-08-09T19:40:22.043Z,36.38
2022-08-09T19:42:49.695Z,37.20
2022-08-09T19:45:17.479Z,37.40
2022-08-09T19:47:45.652Z,33.88
2022-08-09T19:50:51.284Z,39.50
2022-08-09T19:53:02.416Z,30.85
2022-08-09T19:56:02.106Z,31.85
2022-08-09T19:58:30.219Z,41.17
2022-08-09T20:00:58.613Z,43.13
2022-08-09T20:04:17.044Z,54.25
2022-08-09T20:06:23.726Z,60.08
2022-08-09T20:08:59.572Z,78.28
2022-08-09T20:11:33.754Z,86.25
2022-08-09T20:14:13.090Z,93.45
2022-08-09T20:16:48.981Z,103.55
2022-08-09T20:19:47.669Z,115.53
2022-08-09T20:22:08.967Z,119.50
2022-08-09T20:24:37.433Z,115.35
2022-08-09T20:27:11.669Z,130.93
2022-08-09T20:29:41.153Z,129.02
2022-08-09T20:32:30.615Z,127.90
2022-08-09T20:34:58.263Z,139.77
2022-08-09T20:37:25.827Z,146.68
2022-08-09T20:40:19.079Z,161.15
2022-08-09T20:43:00.283Z,171.55
2022-08-09T20:45:59.756Z,182.23
2022-08-09T20:48:29.096Z,172.30
2022-08-09T20:50:58.745Z,197.02
2022-08-09T20:53:36.178Z,198.77
2022-08-09T20:56:19.905Z,212.93
2022-08-09T20:58:54.579Z,273.80
2022-08-09T21:01:35.267Z,218.55
2022-08-09T21:05:51.660Z,227.70
2022-08-09T21:07:11.918Z,257.85
2022-08-09T21:09:56.900Z,198.63
2022-08-09T21:15:23.788Z,243.30
2022-08-09T21:18:23.094Z,201.23
2022-08-09T21:20:54.130Z,215.20
2022-08-09T21:23:22.502Z,184.73
2022-08-09T21:26:03.623Z,193.68
2022-08-09T21:28:36.184Z,173.93
2022-08-09T21:31:17.668Z,157.20
2022-08-09T21:33:53.016Z,189.93
2022-08-09T21:36:28.935Z,149.65
2022-08-09T21:38:59.659Z,158.35
2022-08-09T21:42:05.884Z,150.57
2022-08-09T21:44:32.808Z,168.85
2022-08-09T21:47:03.634Z,154.57
2022-08-09T21:49:39.780Z,151.95
2022-08-09T21:52:16.392Z,173.07
2022-08-09T21:55:03.001Z,206.20
2022-08-09T21:57:39.169Z,211.55
2022-08-09T22:00:33.462Z,168.80
2022-08-09T22:03:06.843Z,183.05
2022-08-09T22:05:42.352Z,172.40
2022-08-09T22:08:13.883Z,187.25
2022-08-09T22:11:50.291Z,201.85
2022-08-09T22:13:36.751Z,213.82
2022-08-09T22:16:07.620Z,230.90
2022-08-09T22:18:37.647Z,203.18
2022-08-09T22:21:09.556Z,238.45
2022-08-09T22:23:58.613Z,198.05
2022-08-09T22:26:35.165Z,219.02
2022-08-09T22:29:09.753Z,194.40
2022-08-09T22:31:50.421Z,191.57
2022-08-09T22:34:28.799Z,180.82
2022-08-09T22:36:59.060Z,188.50
2022-08-09T22:39:57.097Z,196.07
2022-08-09T22:42:21.978Z,200.43
2022-08-09T22:45:00.415Z,213.70
2022-08-09T22:48:11.233Z,187.20
2022-08-09T22:50:28.125Z,183.73
2022-08-09T22:52:57.880Z,221.40
2022-08-09T22:55:39.471Z,188.38
2022-08-09T22:58:20.226Z,203.32
2022-08-09T23:00:59.709Z,194.73
2022-08-09T23:04:02.535Z,205.82
2022-08-09T23:06:14.467Z,192.43
2022-08-09T23:08:57.018Z,195.45
2022-08-09T23:11:24.038Z,212.52
2022-08-09T23:13:54.984Z,211.40
2022-08-09T23:16:23.034Z,210.77
2022-08-09T23:18:50.248Z,216.85
2022-08-09T23:21:24.532Z,191.25
2022-08-09T23:24:05.496Z,199.50
2022-08-09T23:29:11.674Z,154.45
2022-08-09T23:31:39.185Z,193.63
2022-08-09T23:34:06.642Z,203.90
2022-08-09T23:36:35.183Z,218.27
2022-08-09T23:39:04.716Z,223.40
2022-08-09T23:41:32.080Z,199.63
2022-08-09T23:44:00.378Z,210.68
2022-08-09T23:46:31.352Z,208.68
2022-08-09T23:48:59.391Z,216.68
2022-08-09T23:51:27.772Z,202.25
2022-08-09T23:54:02.497Z,179.40
2022-08-09T23:56:53.520Z,223.93
2022-08-09T23:59:21.606Z,201.43
